Terminal Aerodrome Forecast
Issued by NWS Twin Cities, MN

Home | Current Version | Previous Version | Graphics & Text | Print | Product List | Glossary On
Versions: 1 2 3 4 5 6 7 8 9 10 11 12 13 14 15 16 17 18 19 20
000
FTUS43 KMPX 212300
TAFSTC
TAF
KSTC 212325Z 2200/2224 32006KT P6SM FEW040
     FM220200 VRB03KT P6SM SKC
     FM221200 23005KT P6SM SKC
     FM221700 25008KT P6SM SKC=

USA.gov is the U.S. government's official web portal to all federal, state and local government web resources and services.